createdAt,value
2018-11-05T00:01:56.082Z,12.30
2018-11-05T00:04:24.511Z,12.10
2018-11-05T00:06:52.889Z,12.10
2018-11-05T00:09:21.338Z,12.10
2018-11-05T00:11:49.739Z,12.20
2018-11-05T00:14:18.132Z,12.30
2018-11-05T00:16:46.502Z,12.30
2018-11-05T00:19:14.908Z,12.30
2018-11-05T00:21:43.301Z,12.30
2018-11-05T00:24:11.692Z,12.30
2018-11-05T00:26:40.107Z,12.30
2018-11-05T00:29:08.523Z,12.30
2018-11-05T00:31:36.900Z,12.30
2018-11-05T00:34:05.334Z,12.30
2018-11-05T00:36:33.748Z,12.30
2018-11-05T00:39:02.152Z,12.30
2018-11-05T00:41:30.573Z,12.30
2018-11-05T00:43:58.955Z,12.30
2018-11-05T00:46:27.413Z,12.30
2018-11-05T00:48:55.808Z,12.30
2018-11-05T00:51:24.214Z,12.20
2018-11-05T00:53:52.598Z,12.20
2018-11-05T00:56:21.095Z,12.20
2018-11-05T00:58:49.517Z,12.30
2018-11-05T01:01:17.980Z,12.30
2018-11-05T01:03:46.361Z,12.30
2018-11-05T01:06:14.745Z,12.20
2018-11-05T01:08:43.207Z,12.20
2018-11-05T01:11:11.610Z,12.30
2018-11-05T01:13:40.019Z,12.20
2018-11-05T01:16:08.406Z,12.20
2018-11-05T01:18:36.829Z,12.30
2018-11-05T01:21:06.027Z,12.30
2018-11-05T01:23:34.428Z,12.20
2018-11-05T01:26:02.859Z,12.30
2018-11-05T01:28:31.260Z,12.30
2018-11-05T01:30:59.683Z,12.30
2018-11-05T01:33:28.072Z,12.30
2018-11-05T01:35:56.494Z,12.30
2018-11-05T01:38:24.926Z,12.20
2018-11-05T01:40:53.346Z,12.20
2018-11-05T01:43:21.740Z,12.20
2018-11-05T01:45:50.178Z,12.20
2018-11-05T01:48:18.555Z,12.30
2018-11-05T01:50:46.962Z,12.30
2018-11-05T01:53:15.363Z,12.20
2018-11-05T01:55:43.812Z,12.20
2018-11-05T01:58:12.243Z,12.20
2018-11-05T02:00:40.714Z,12.30
2018-11-05T02:03:09.153Z,12.30
2018-11-05T02:05:37.585Z,12.20
2018-11-05T02:08:06.158Z,12.20
2018-11-05T02:10:34.586Z,12.30
2018-11-05T02:13:03.007Z,12.30
2018-11-05T02:15:31.470Z,12.30
2018-11-05T02:17:59.884Z,12.30
2018-11-05T02:20:28.910Z,12.30
2018-11-05T02:22:57.331Z,12.20
2018-11-05T02:25:25.784Z,12.30
2018-11-05T02:27:54.203Z,12.20
2018-11-05T02:30:22.652Z,12.30
2018-11-05T02:32:51.129Z,12.30
2018-11-05T02:35:19.579Z,12.30
2018-11-05T02:37:48.388Z,12.30
2018-11-05T02:40:18.117Z,12.20
2018-11-05T02:42:47.087Z,12.20
2018-11-05T02:45:16.592Z,12.30
2018-11-05T02:47:45.120Z,12.30
2018-11-05T02:50:14.095Z,12.30
2018-11-05T02:52:43.511Z,12.40
2018-11-05T02:55:11.970Z,12.30
2018-11-05T02:57:40.420Z,12.40
2018-11-05T03:00:16.086Z,12.40
2018-11-05T03:02:44.530Z,12.40
2018-11-05T03:05:14.214Z,12.30
2018-11-05T03:07:43.069Z,12.40
2018-11-05T03:10:12.141Z,12.30
2018-11-05T03:12:41.267Z,12.40
2018-11-05T03:15:11.463Z,12.40
2018-11-05T03:17:40.316Z,12.40
2018-11-05T03:20:10.068Z,12.40
2018-11-05T03:22:38.777Z,12.40
2018-11-05T03:25:07.279Z,12.30
2018-11-05T03:27:35.736Z,12.30
2018-11-05T03:30:04.352Z,12.30
2018-11-05T03:32:32.804Z,12.30
2018-11-05T03:35:01.495Z,12.30
2018-11-05T03:37:29.951Z,12.30
2018-11-05T03:39:58.357Z,12.30
2018-11-05T03:42:26.780Z,12.20
2018-11-05T03:44:55.258Z,12.20
2018-11-05T03:47:23.692Z,12.20
2018-11-05T03:49:52.194Z,12.30
2018-11-05T03:52:20.657Z,12.30
2018-11-05T03:54:49.102Z,12.30
2018-11-05T03:57:17.556Z,12.30
2018-11-05T03:59:45.996Z,12.00
2018-11-05T04:02:14.499Z,12.20
2018-11-05T04:04:43.112Z,12.20
2018-11-05T04:07:11.632Z,12.30
2018-11-05T04:09:40.086Z,12.30
2018-11-05T04:12:08.580Z,12.30
2018-11-05T04:14:37.177Z,12.30
2018-11-05T04:17:06.056Z,12.30
2018-11-05T04:19:34.508Z,12.30
2018-11-05T04:22:03.065Z,12.30
2018-11-05T04:24:31.544Z,12.30
2018-11-05T04:27:00.017Z,12.20
2018-11-05T04:29:28.476Z,12.30
2018-11-05T04:31:56.968Z,12.30
2018-11-05T04:34:25.420Z,12.40
2018-11-05T04:36:53.925Z,12.40
2018-11-05T04:39:22.368Z,12.30
2018-11-05T04:41:50.850Z,12.40
2018-11-05T04:44:19.322Z,12.50
2018-11-05T04:46:47.765Z,12.50
2018-11-05T04:49:16.290Z,12.50
2018-11-05T04:51:45.020Z,12.50
2018-11-05T04:54:13.474Z,12.40
2018-11-05T04:56:41.899Z,12.40
2018-11-05T04:59:10.347Z,12.40
2018-11-05T05:01:38.853Z,12.40
2018-11-05T05:04:07.345Z,12.50
2018-11-05T05:06:35.805Z,12.50
2018-11-05T05:09:06.296Z,12.40
2018-11-05T05:11:34.816Z,12.50
2018-11-05T05:14:03.315Z,12.40
2018-11-05T05:16:31.929Z,12.40
2018-11-05T05:19:00.431Z,12.50
2018-11-05T05:21:28.882Z,12.50
2018-11-05T05:23:57.351Z,12.50
2018-11-05T05:26:26.004Z,12.40
2018-11-05T05:28:54.511Z,12.50
2018-11-05T05:31:22.982Z,12.50
2018-11-05T05:33:51.444Z,12.50
2018-11-05T05:36:19.892Z,12.40
2018-11-05T05:38:48.404Z,12.40
2018-11-05T05:41:16.904Z,12.50
2018-11-05T05:43:45.355Z,12.30
2018-11-05T05:46:13.823Z,12.20
2018-11-05T05:48:42.296Z,12.00
2018-11-05T05:51:10.775Z,11.90
2018-11-05T05:53:39.340Z,11.80
2018-11-05T05:56:07.811Z,11.90
2018-11-05T05:58:36.290Z,11.80
2018-11-05T06:01:05.251Z,11.80
2018-11-05T06:03:33.777Z,11.70
2018-11-05T06:06:04.949Z,11.70
2018-11-05T06:08:33.424Z,12.00
2018-11-05T06:11:01.877Z,12.00
2018-11-05T06:13:30.381Z,12.00
2018-11-05T06:15:58.908Z,12.00
2018-11-05T06:18:27.326Z,12.30
2018-11-05T06:20:55.826Z,12.40
2018-11-05T06:23:24.318Z,12.30
2018-11-05T06:25:52.764Z,12.50
2018-11-05T06:28:21.360Z,12.60
2018-11-05T06:30:49.791Z,12.60
2018-11-05T06:33:18.428Z,12.70
2018-11-05T06:35:46.958Z,12.80
2018-11-05T06:38:15.466Z,12.80
2018-11-05T06:40:43.917Z,12.80
2018-11-05T06:43:12.394Z,12.80
2018-11-05T06:45:40.820Z,12.70
2018-11-05T06:48:12.518Z,12.80
2018-11-05T06:50:40.987Z,12.70
2018-11-05T06:53:09.447Z,12.80
2018-11-05T06:55:37.911Z,12.80
2018-11-05T06:58:06.556Z,12.80
2018-11-05T07:00:35.089Z,12.70
2018-11-05T07:03:03.571Z,12.80
2018-11-05T07:05:32.056Z,12.80
2018-11-05T07:08:00.491Z,12.80
2018-11-05T07:10:29.104Z,12.70
2018-11-05T07:13:04.683Z,12.80
2018-11-05T07:15:33.179Z,12.90
2018-11-05T07:18:01.637Z,12.70
2018-11-05T07:20:30.124Z,12.40
2018-11-05T07:22:58.680Z,12.20
2018-11-05T07:25:30.260Z,12.00
2018-11-05T07:28:16.908Z,12.10
2018-11-05T07:30:45.603Z,12.20
2018-11-05T07:36:12.048Z,12.30
2018-11-05T07:38:40.595Z,12.30
2018-11-05T07:41:09.072Z,12.20
2018-11-05T07:43:37.524Z,12.30
2018-11-05T07:46:06.327Z,12.00
2018-11-05T07:48:34.839Z,12.00
2018-11-05T07:51:21.656Z,12.10
2018-11-05T07:53:50.145Z,12.10
2018-11-05T07:56:19.546Z,12.20
2018-11-05T07:58:47.976Z,12.10
2018-11-05T08:01:16.657Z,11.90
2018-11-05T08:03:45.213Z,12.00
2018-11-05T08:06:13.824Z,12.00
2018-11-05T08:08:42.325Z,12.00
2018-11-05T08:11:10.985Z,12.00
2018-11-05T08:13:40.638Z,12.10
2018-11-05T08:16:09.150Z,12.20
2018-11-05T08:18:37.610Z,12.10
2018-11-05T08:21:06.120Z,12.00
2018-11-05T08:23:34.578Z,12.10
2018-11-05T08:26:09.164Z,12.30
2018-11-05T08:28:37.701Z,12.20
2018-11-05T08:31:06.869Z,12.20
2018-11-05T08:33:35.461Z,12.30
2018-11-05T08:36:04.098Z,12.50
2018-11-05T08:38:32.634Z,12.40
2018-11-05T08:41:01.154Z,12.30
2018-11-05T08:43:31.741Z,12.20
2018-11-05T08:46:00.415Z,12.20
2018-11-05T08:48:28.911Z,12.20
2018-11-05T08:50:57.482Z,12.40
2018-11-05T08:53:25.946Z,12.50
2018-11-05T08:55:56.211Z,12.40
2018-11-05T08:58:24.705Z,12.40
2018-11-05T09:00:56.464Z,12.50
2018-11-05T09:03:24.956Z,12.50
2018-11-05T09:05:53.457Z,12.60
2018-11-05T09:08:21.974Z,12.50
2018-11-05T09:10:50.670Z,12.70
2018-11-05T09:13:19.112Z,12.80
2018-11-05T09:15:47.675Z,12.90
2018-11-05T09:18:22.390Z,12.80
2018-11-05T09:20:51.239Z,12.70
2018-11-05T09:23:20.170Z,12.70
2018-11-05T09:25:48.740Z,12.80
2018-11-05T09:28:17.220Z,12.90
2018-11-05T09:30:45.803Z,13.00
2018-11-05T09:33:14.316Z,12.90
2018-11-05T09:35:43.184Z,13.00
2018-11-05T09:38:11.859Z,12.90
2018-11-05T09:40:40.350Z,12.90
2018-11-05T09:43:08.837Z,12.90
2018-11-05T09:45:38.417Z,13.00
2018-11-05T09:48:06.978Z,13.10
2018-11-05T09:50:35.554Z,13.20
2018-11-05T09:53:04.024Z,13.30
2018-11-05T09:55:32.588Z,13.30
2018-11-05T09:58:01.104Z,13.20
2018-11-05T10:00:29.628Z,13.10
2018-11-05T10:03:07.648Z,13.20
2018-11-05T10:05:36.101Z,13.20
2018-11-05T10:08:04.548Z,13.30
2018-11-05T10:10:33.135Z,13.20
2018-11-05T10:13:01.543Z,13.10
2018-11-05T10:15:29.996Z,13.30
2018-11-05T10:17:58.648Z,13.50
2018-11-05T10:20:27.088Z,13.40
2018-11-05T10:22:55.851Z,13.50
2018-11-05T10:25:24.359Z,13.40
2018-11-05T10:27:53.240Z,13.60
2018-11-05T10:30:25.038Z,13.80
2018-11-05T10:32:53.507Z,13.70
2018-11-05T10:35:26.199Z,13.80
2018-11-05T10:38:04.926Z,13.90
2018-11-05T10:40:33.473Z,14.10
2018-11-05T10:43:01.904Z,14.10
2018-11-05T10:45:30.738Z,14.10
2018-11-05T10:48:01.031Z,14.40
2018-11-05T10:53:27.183Z,14.50
2018-11-05T10:55:55.896Z,14.50
2018-11-05T10:58:24.994Z,14.80
2018-11-05T11:00:59.028Z,14.80
2018-11-05T11:03:34.643Z,14.60
2018-11-05T11:06:03.947Z,14.60
2018-11-05T11:08:32.566Z,14.30
2018-11-05T11:11:01.640Z,14.50
2018-11-05T11:13:31.096Z,14.70
2018-11-05T11:16:01.207Z,14.90
2018-11-05T11:18:30.028Z,15.20
2018-11-05T11:20:58.944Z,15.60
2018-11-05T11:23:27.403Z,15.80
2018-11-05T11:25:55.865Z,16.00
2018-11-05T11:28:25.585Z,16.20
2018-11-05T11:30:53.964Z,16.20
2018-11-05T11:33:52.590Z,16.20
2018-11-05T11:36:21.172Z,16.20
2018-11-05T11:38:49.649Z,15.80
2018-11-05T11:41:18.181Z,15.80
2018-11-05T11:43:46.725Z,15.90
2018-11-05T11:46:16.998Z,16.10
2018-11-05T11:48:46.423Z,16.30
2018-11-05T11:51:24.047Z,16.30
2018-11-05T11:53:52.942Z,16.20
2018-11-05T11:56:29.303Z,16.20
2018-11-05T11:58:57.795Z,16.30
2018-11-05T12:01:27.188Z,16.20
2018-11-05T12:03:58.069Z,16.20
2018-11-05T12:06:30.105Z,16.30
2018-11-05T12:12:26.361Z,16.40
2018-11-05T12:14:56.518Z,16.30
2018-11-05T12:17:32.355Z,16.30
2018-11-05T12:20:14.713Z,16.30
2018-11-05T12:22:45.929Z,16.30
2018-11-05T12:25:14.796Z,16.40
2018-11-05T12:27:45.027Z,16.40
2018-11-05T12:30:19.051Z,16.40
2018-11-05T12:35:24.204Z,15.80
2018-11-05T12:37:53.412Z,15.80
2018-11-05T12:40:22.952Z,15.70
2018-11-05T12:42:52.410Z,15.50
2018-11-05T12:45:21.368Z,15.70
2018-11-05T13:01:01.529Z,15.80
2018-11-05T13:03:34.293Z,15.60
2018-11-05T13:06:04.500Z,15.60
2018-11-05T13:08:33.791Z,15.40
2018-11-05T13:11:03.065Z,15.50
2018-11-05T13:13:32.094Z,15.50
2018-11-05T13:16:04.105Z,15.40
2018-11-05T13:18:34.348Z,15.30
2018-11-05T13:28:10.706Z,16.00
2018-11-05T13:36:28.847Z,16.20
2018-11-05T13:41:56.483Z,16.30
2018-11-05T13:44:25.730Z,16.40
2018-11-05T13:46:55.168Z,16.40
2018-11-05T13:49:24.034Z,16.40
2018-11-05T13:51:52.663Z,16.40
2018-11-05T13:55:00.174Z,16.50
2018-11-05T13:57:47.075Z,16.50
2018-11-05T14:00:20.191Z,16.50
2018-11-05T14:02:49.035Z,16.50
2018-11-05T14:05:17.504Z,16.50
2018-11-05T14:07:45.968Z,16.70
2018-11-05T14:10:16.179Z,16.70
2018-11-05T14:12:45.518Z,16.80
2018-11-05T14:15:13.932Z,16.80
2018-11-05T14:17:43.184Z,16.60
2018-11-05T14:20:12.664Z,16.30
2018-11-05T14:22:41.622Z,16.30
2018-11-05T14:25:12.480Z,16.30
2018-11-05T14:27:41.628Z,16.20
2018-11-05T14:30:11.644Z,16.30
2018-11-05T14:32:40.757Z,16.40
2018-11-05T14:35:09.352Z,16.50
2018-11-05T14:37:39.606Z,16.50
2018-11-05T14:40:09.692Z,16.50
2018-11-05T14:42:38.207Z,16.30
2018-11-05T14:45:08.524Z,16.20
2018-11-05T14:47:36.987Z,16.30
2018-11-05T14:50:07.484Z,16.30
2018-11-05T14:52:38.148Z,16.30
2018-11-05T14:55:08.446Z,16.40
2018-11-05T14:57:36.904Z,16.50
2018-11-05T15:00:09.164Z,16.20
2018-11-05T15:02:38.847Z,16.20
2018-11-05T15:05:08.036Z,16.20
2018-11-05T15:07:36.656Z,16.10
2018-11-05T15:10:05.867Z,16.20
2018-11-05T15:12:34.445Z,16.40
2018-11-05T15:15:02.966Z,16.20
2018-11-05T15:17:31.401Z,16.10
2018-11-05T15:20:00.267Z,16.20
2018-11-05T15:22:28.302Z,16.10
2018-11-05T15:24:56.748Z,15.90
2018-11-05T15:27:25.325Z,15.90
2018-11-05T15:29:53.943Z,15.60
2018-11-05T15:32:23.460Z,15.80
2018-11-05T15:34:51.928Z,15.50
2018-11-05T15:37:20.352Z,15.40
2018-11-05T15:39:48.799Z,15.50
2018-11-05T15:42:17.215Z,15.50
2018-11-05T15:44:45.650Z,15.20
2018-11-05T15:47:14.059Z,15.20
2018-11-05T15:49:42.510Z,15.20
2018-11-05T15:52:11.209Z,15.10
2018-11-05T15:54:39.571Z,15.20
2018-11-05T15:57:11.500Z,15.20
2018-11-05T15:59:40.013Z,15.10
2018-11-05T16:02:12.631Z,15.00
2018-11-05T16:04:42.685Z,14.90
2018-11-05T16:07:11.390Z,14.80
2018-11-05T16:09:40.716Z,14.70
2018-11-05T16:12:09.158Z,14.60
2018-11-05T16:14:37.807Z,14.40
2018-11-05T16:17:06.298Z,14.40
2018-11-05T16:19:34.752Z,14.40
2018-11-05T16:22:03.346Z,14.40
2018-11-05T16:24:31.938Z,14.40
2018-11-05T16:27:00.337Z,14.30
2018-11-05T16:29:28.791Z,14.40
2018-11-05T16:31:57.431Z,14.50
2018-11-05T16:34:26.143Z,14.50
2018-11-05T16:36:54.642Z,14.50
2018-11-05T16:39:23.163Z,14.40
2018-11-05T16:41:51.865Z,14.40
2018-11-05T16:44:20.262Z,14.40
2018-11-05T16:46:48.751Z,14.40
2018-11-05T16:49:17.221Z,14.40
2018-11-05T16:51:45.688Z,14.30
2018-11-05T16:54:14.150Z,14.40
2018-11-05T16:56:42.641Z,14.40
2018-11-05T16:59:11.092Z,14.50
2018-11-05T17:01:40.110Z,14.40
2018-11-05T17:04:08.502Z,14.40
2018-11-05T17:06:36.983Z,14.40
2018-11-05T17:09:07.762Z,14.30
2018-11-05T17:11:36.274Z,14.10
2018-11-05T17:14:04.926Z,14.30
2018-11-05T17:16:33.400Z,14.20
2018-11-05T17:19:01.922Z,14.00
2018-11-05T17:21:30.353Z,14.00
2018-11-05T17:23:58.803Z,14.00
2018-11-05T17:26:27.405Z,14.20
2018-11-05T17:28:55.777Z,14.20
2018-11-05T17:31:24.240Z,14.10
2018-11-05T17:33:52.741Z,14.00
2018-11-05T17:36:21.155Z,14.30
2018-11-05T17:38:49.630Z,14.30
2018-11-05T17:41:18.101Z,14.20
2018-11-05T17:43:46.490Z,14.10
2018-11-05T17:46:14.945Z,14.30
2018-11-05T17:48:49.621Z,14.20
2018-11-05T17:51:20.125Z,14.30
2018-11-05T17:53:48.554Z,14.20
2018-11-05T17:56:17.085Z,14.30
2018-11-05T17:58:45.480Z,14.30
2018-11-05T18:01:13.944Z,14.00
2018-11-05T18:03:42.457Z,14.10
2018-11-05T18:06:10.940Z,14.00
2018-11-05T18:08:39.402Z,13.90
2018-11-05T18:11:07.868Z,13.80
2018-11-05T18:13:36.351Z,13.50
2018-11-05T18:16:04.993Z,13.40
2018-11-05T18:18:33.628Z,13.40
2018-11-05T18:21:02.097Z,13.40
2018-11-05T18:23:30.540Z,13.40
2018-11-05T18:25:59.036Z,13.60
2018-11-05T18:28:27.493Z,13.70
2018-11-05T18:30:55.951Z,13.80
2018-11-05T18:33:24.454Z,13.80
2018-11-05T18:35:52.925Z,13.70
2018-11-05T18:38:21.948Z,13.70
2018-11-05T18:40:50.411Z,13.50
2018-11-05T18:43:18.856Z,13.30
2018-11-05T18:45:47.327Z,13.30
2018-11-05T18:48:15.747Z,13.40
2018-11-05T18:50:44.254Z,13.30
2018-11-05T18:53:12.720Z,13.20
2018-11-05T18:55:41.199Z,13.10
2018-11-05T18:58:09.628Z,13.00
2018-11-05T19:00:42.318Z,12.90
2018-11-05T19:03:10.778Z,12.90
2018-11-05T19:05:39.179Z,12.80
2018-11-05T19:08:07.732Z,12.80
2018-11-05T19:10:36.216Z,12.80
2018-11-05T19:13:04.954Z,12.70
2018-11-05T19:15:33.395Z,12.90
2018-11-05T19:18:01.829Z,13.00
2018-11-05T19:20:30.305Z,13.10
2018-11-05T19:22:58.996Z,12.70
2018-11-05T19:25:27.311Z,12.80
2018-11-05T19:27:55.741Z,12.70
2018-11-05T19:30:25.530Z,12.70
2018-11-05T19:32:53.999Z,12.50
2018-11-05T19:35:22.489Z,12.30
2018-11-05T19:37:50.964Z,12.30
2018-11-05T19:40:19.917Z,12.20
2018-11-05T19:42:49.004Z,12.20
2018-11-05T19:45:18.608Z,12.10
2018-11-05T19:47:53.196Z,12.10
2018-11-05T19:50:23.043Z,11.60
2018-11-05T19:52:57.633Z,11.90
2018-11-05T19:55:26.130Z,11.90
2018-11-05T19:57:54.672Z,12.00
2018-11-05T20:00:29.204Z,11.90
2018-11-05T20:02:59.087Z,11.90
2018-11-05T20:05:27.731Z,11.90
2018-11-05T20:07:57.230Z,12.10
2018-11-05T20:10:25.995Z,11.90
2018-11-05T20:12:54.564Z,11.80
2018-11-05T20:15:23.137Z,11.80
2018-11-05T20:17:52.831Z,12.00
2018-11-05T20:20:22.368Z,12.20
2018-11-05T20:22:50.991Z,11.90
2018-11-05T20:25:19.409Z,11.90
2018-11-05T20:27:48.102Z,11.80
2018-11-05T20:30:20.563Z,11.90
2018-11-05T20:32:50.268Z,12.10
2018-11-05T20:35:18.516Z,12.20
2018-11-05T20:37:47.155Z,12.10
2018-11-05T20:40:17.055Z,12.10
2018-11-05T20:42:46.589Z,11.90
2018-11-05T20:45:15.762Z,11.90
2018-11-05T20:47:44.477Z,11.70
2018-11-05T20:50:14.284Z,11.70
2018-11-05T20:52:42.828Z,11.50
2018-11-05T20:55:12.930Z,11.50
2018-11-05T20:57:41.860Z,11.30
2018-11-05T21:00:15.227Z,11.30
2018-11-05T21:02:44.043Z,11.10
2018-11-05T21:05:12.514Z,11.00
2018-11-05T21:07:42.194Z,11.00
2018-11-05T21:10:12.188Z,11.10
2018-11-05T21:12:41.420Z,11.10
2018-11-05T21:15:20.232Z,11.30
2018-11-05T21:17:49.361Z,11.40
2018-11-05T21:20:17.892Z,11.50
2018-11-05T21:22:47.260Z,11.50
2018-11-05T21:25:15.574Z,11.60
2018-11-05T21:27:44.607Z,11.80
2018-11-05T21:30:15.209Z,11.60
2018-11-05T21:32:43.676Z,11.40
2018-11-05T21:35:13.925Z,11.40
2018-11-05T21:37:42.630Z,11.50
2018-11-05T21:40:12.348Z,11.20
2018-11-05T21:42:41.921Z,10.90
2018-11-05T21:45:11.664Z,10.70
2018-11-05T21:47:40.636Z,10.50
2018-11-05T21:50:11.770Z,10.30
2018-11-05T21:52:41.172Z,10.40
2018-11-05T21:55:09.869Z,10.00
2018-11-05T21:57:40.172Z,10.00
2018-11-05T22:00:12.028Z,10.00
2018-11-05T22:02:45.658Z,10.00
2018-11-05T22:05:14.927Z,10.10
2018-11-05T22:07:43.403Z,10.10
2018-11-05T22:10:12.539Z,10.00
2018-11-05T22:12:41.121Z,10.00
2018-11-05T22:15:09.610Z,9.90
2018-11-05T22:17:38.109Z,9.70
2018-11-05T22:20:07.680Z,9.80
2018-11-05T22:22:36.212Z,9.70
2018-11-05T22:25:04.811Z,9.70
2018-11-05T22:27:33.404Z,9.70
2018-11-05T22:30:01.904Z,9.70
2018-11-05T22:32:30.911Z,9.90
2018-11-05T22:35:00.572Z,10.00
2018-11-05T22:37:29.409Z,10.00
2018-11-05T22:39:58.145Z,10.00
2018-11-05T22:42:27.024Z,9.90
2018-11-05T22:44:55.471Z,9.90
2018-11-05T22:47:24.015Z,9.80
2018-11-05T22:49:52.576Z,9.90
2018-11-05T22:52:21.324Z,9.70
2018-11-05T22:54:49.936Z,9.80
2018-11-05T22:57:19.243Z,9.70
2018-11-05T22:59:47.750Z,9.70
2018-11-05T23:02:16.255Z,9.70
2018-11-05T23:04:44.731Z,9.60
2018-11-05T23:07:13.174Z,9.80
2018-11-05T23:09:41.623Z,9.40
2018-11-05T23:12:10.077Z,9.20
2018-11-05T23:14:40.595Z,9.30
2018-11-05T23:17:09.052Z,9.50
2018-11-05T23:19:37.545Z,9.60
2018-11-05T23:22:06.279Z,9.70
2018-11-05T23:24:34.776Z,9.80
2018-11-05T23:27:03.238Z,9.70
2018-11-05T23:29:31.717Z,9.80
2018-11-05T23:32:00.157Z,10.00
2018-11-05T23:34:28.611Z,9.90
2018-11-05T23:36:57.067Z,9.80
2018-11-05T23:39:25.550Z,9.80
2018-11-05T23:41:54.008Z,9.80
2018-11-05T23:44:22.479Z,9.60
2018-11-05T23:46:50.950Z,9.70
2018-11-05T23:49:19.450Z,9.80
2018-11-05T23:51:48.009Z,9.90
2018-11-05T23:54:16.390Z,10.10
2018-11-05T23:56:44.825Z,10.20
2018-11-05T23:59:13.257Z,9.90
